sensor_id;sensor_type;location;lat;lon;timestamp;temperature;humidity
2571;DHT22;1295;51.130;6.732;2022-12-29T00:01:13;10.10;99.90
2571;DHT22;1295;51.130;6.732;2022-12-29T00:03:39;10.10;99.90
2571;DHT22;1295;51.130;6.732;2022-12-29T00:06:04;10.10;99.90
2571;DHT22;1295;51.130;6.732;2022-12-29T00:08:30;10.00;99.90
2571;DHT22;1295;51.130;6.732;2022-12-29T00:11:02;10.10;99.90
2571;DHT22;1295;51.130;6.732;2022-12-29T00:13:28;9.90;99.90
2571;DHT22;1295;51.130;6.732;2022-12-29T00:16:12;9.70;99.90
2571;DHT22;1295;51.130;6.732;2022-12-29T00:18:39;9.60;99.90
2571;DHT22;1295;51.130;6.732;2022-12-29T00:21:04;9.60;99.90
2571;DHT22;1295;51.130;6.732;2022-12-29T00:23:36;9.80;99.90
2571;DHT22;1295;51.130;6.732;2022-12-29T00:26:12;10.00;99.90
2571;DHT22;1295;51.130;6.732;2022-12-29T00:28:42;10.00;99.90
2571;DHT22;1295;51.130;6.732;2022-12-29T00:31:15;10.00;99.90
2571;DHT22;1295;51.130;6.732;2022-12-29T00:33:47;10.00;99.90
2571;DHT22;1295;51.130;6.732;2022-12-29T00:36:21;10.20;99.90
2571;DHT22;1295;51.130;6.732;2022-12-29T00:38:46;10.20;99.90
2571;DHT22;1295;51.130;6.732;2022-12-29T00:41:16;10.10;99.90
2571;DHT22;1295;51.130;6.732;2022-12-29T00:43:48;10.30;99.90
2571;DHT22;1295;51.130;6.732;2022-12-29T00:46:21;10.50;99.90
2571;DHT22;1295;51.130;6.732;2022-12-29T00:48:47;10.20;99.90
2571;DHT22;1295;51.130;6.732;2022-12-29T00:51:19;10.20;99.90
2571;DHT22;1295;51.130;6.732;2022-12-29T00:53:45;10.20;99.90
2571;DHT22;1295;51.130;6.732;2022-12-29T00:56:11;10.50;99.90
2571;DHT22;1295;51.130;6.732;2022-12-29T00:58:36;10.80;99.90
2571;DHT22;1295;51.130;6.732;2022-12-29T01:01:03;10.60;99.90
2571;DHT22;1295;51.130;6.732;2022-12-29T01:03:29;10.80;99.90
2571;DHT22;1295;51.130;6.732;2022-12-29T01:05:55;10.80;99.90
2571;DHT22;1295;51.130;6.732;2022-12-29T01:08:21;11.00;99.90
2571;DHT22;1295;51.130;6.732;2022-12-29T01:10:46;10.90;99.90
2571;DHT22;1295;51.130;6.732;2022-12-29T01:13:13;10.70;99.90
2571;DHT22;1295;51.130;6.732;2022-12-29T01:15:39;10.70;99.90
2571;DHT22;1295;51.130;6.732;2022-12-29T01:18:05;10.70;99.90
2571;DHT22;1295;51.130;6.732;2022-12-29T01:20:31;10.40;99.90
2571;DHT22;1295;51.130;6.732;2022-12-29T01:22:57;10.40;99.90
2571;DHT22;1295;51.130;6.732;2022-12-29T01:25:23;11.00;99.90
2571;DHT22;1295;51.130;6.732;2022-12-29T01:27:49;11.00;99.90
2571;DHT22;1295;51.130;6.732;2022-12-29T01:30:15;11.00;99.90
2571;DHT22;1295;51.130;6.732;2022-12-29T01:32:41;10.90;99.90
2571;DHT22;1295;51.130;6.732;2022-12-29T01:35:06;11.10;99.90
2571;DHT22;1295;51.130;6.732;2022-12-29T01:37:32;10.60;99.90
2571;DHT22;1295;51.130;6.732;2022-12-29T01:39:58;11.20;99.90
2571;DHT22;1295;51.130;6.732;2022-12-29T01:42:24;11.10;99.90
2571;DHT22;1295;51.130;6.732;2022-12-29T01:44:54;10.70;99.90
2571;DHT22;1295;51.130;6.732;2022-12-29T01:47:23;10.80;99.90
2571;DHT22;1295;51.130;6.732;2022-12-29T01:49:47;10.70;99.90
2571;DHT22;1295;51.130;6.732;2022-12-29T01:52:12;10.60;99.90
2571;DHT22;1295;51.130;6.732;2022-12-29T01:54:41;10.80;99.90
2571;DHT22;1295;51.130;6.732;2022-12-29T01:57:06;11.00;99.90
2571;DHT22;1295;51.130;6.732;2022-12-29T01:59:31;11.10;99.90
2571;DHT22;1295;51.130;6.732;2022-12-29T02:01:56;11.40;99.90
2571;DHT22;1295;51.130;6.732;2022-12-29T02:04:23;11.40;99.90
2571;DHT22;1295;51.130;6.732;2022-12-29T02:07:04;11.20;99.90
2571;DHT22;1295;51.130;6.732;2022-12-29T02:09:33;11.20;99.90
2571;DHT22;1295;51.130;6.732;2022-12-29T02:11:59;11.30;99.90
2571;DHT22;1295;51.130;6.732;2022-12-29T02:14:24;11.40;99.90
2571;DHT22;1295;51.130;6.732;2022-12-29T02:24:56;10.70;99.90
2571;DHT22;1295;51.130;6.732;2022-12-29T02:27:52;10.60;99.90
2571;DHT22;1295;51.130;6.732;2022-12-29T02:30:36;10.40;99.90
2571;DHT22;1295;51.130;6.732;2022-12-29T02:33:21;10.70;99.90
2571;DHT22;1295;51.130;6.732;2022-12-29T02:35:51;10.80;99.90
2571;DHT22;1295;51.130;6.732;2022-12-29T02:38:42;10.50;99.90
2571;DHT22;1295;51.130;6.732;2022-12-29T02:43:55;10.50;99.90
2571;DHT22;1295;51.130;6.732;2022-12-29T02:46:21;10.50;99.90
2571;DHT22;1295;51.130;6.732;2022-12-29T02:48:48;10.60;99.90
2571;DHT22;1295;51.130;6.732;2022-12-29T02:51:15;10.60;99.90
2571;DHT22;1295;51.130;6.732;2022-12-29T02:53:38;10.70;99.90
2571;DHT22;1295;51.130;6.732;2022-12-29T02:56:10;10.70;99.90
2571;DHT22;1295;51.130;6.732;2022-12-29T02:58:35;10.80;99.90
2571;DHT22;1295;51.130;6.732;2022-12-29T03:04:01;11.10;99.90
2571;DHT22;1295;51.130;6.732;2022-12-29T03:06:31;11.10;99.90
2571;DHT22;1295;51.130;6.732;2022-12-29T03:09:11;10.80;99.90
2571;DHT22;1295;51.130;6.732;2022-12-29T03:11:31;10.80;99.90
2571;DHT22;1295;51.130;6.732;2022-12-29T03:14:03;11.10;99.90
2571;DHT22;1295;51.130;6.732;2022-12-29T03:16:46;11.30;99.90
2571;DHT22;1295;51.130;6.732;2022-12-29T03:19:19;11.30;99.90
2571;DHT22;1295;51.130;6.732;2022-12-29T03:21:50;11.20;99.90
2571;DHT22;1295;51.130;6.732;2022-12-29T03:24:22;11.20;99.90
2571;DHT22;1295;51.130;6.732;2022-12-29T03:26:45;11.40;99.90
2571;DHT22;1295;51.130;6.732;2022-12-29T03:29:11;11.10;99.90
2571;DHT22;1295;51.130;6.732;2022-12-29T03:31:37;11.10;99.90
2571;DHT22;1295;51.130;6.732;2022-12-29T03:34:02;11.50;99.90
2571;DHT22;1295;51.130;6.732;2022-12-29T03:36:30;11.30;99.90
2571;DHT22;1295;51.130;6.732;2022-12-29T03:38:57;11.40;99.90
2571;DHT22;1295;51.130;6.732;2022-12-29T03:41:21;11.20;99.90
2571;DHT22;1295;51.130;6.732;2022-12-29T03:43:45;11.70;99.90
2571;DHT22;1295;51.130;6.732;2022-12-29T03:46:10;11.70;99.90
2571;DHT22;1295;51.130;6.732;2022-12-29T03:48:37;11.50;99.90
2571;DHT22;1295;51.130;6.732;2022-12-29T03:51:02;11.50;99.90
2571;DHT22;1295;51.130;6.732;2022-12-29T03:53:28;11.10;99.90
2571;DHT22;1295;51.130;6.732;2022-12-29T03:55:53;11.30;99.90
2571;DHT22;1295;51.130;6.732;2022-12-29T03:58:20;11.40;99.90
2571;DHT22;1295;51.130;6.732;2022-12-29T04:00:45;11.40;99.90
2571;DHT22;1295;51.130;6.732;2022-12-29T04:03:11;11.60;99.90
2571;DHT22;1295;51.130;6.732;2022-12-29T04:05:37;11.40;99.90
2571;DHT22;1295;51.130;6.732;2022-12-29T04:08:02;11.50;99.90
2571;DHT22;1295;51.130;6.732;2022-12-29T04:10:28;11.60;99.90
2571;DHT22;1295;51.130;6.732;2022-12-29T04:12:54;11.30;99.90
2571;DHT22;1295;51.130;6.732;2022-12-29T04:15:19;11.60;99.90
2571;DHT22;1295;51.130;6.732;2022-12-29T04:17:45;11.50;99.90
2571;DHT22;1295;51.130;6.732;2022-12-29T04:20:10;11.30;99.90
2571;DHT22;1295;51.130;6.732;2022-12-29T04:22:42;11.30;99.90
2571;DHT22;1295;51.130;6.732;2022-12-29T04:25:08;11.10;99.90
2571;DHT22;1295;51.130;6.732;2022-12-29T04:27:34;11.20;99.90
2571;DHT22;1295;51.130;6.732;2022-12-29T04:30:00;10.80;99.90
2571;DHT22;1295;51.130;6.732;2022-12-29T04:32:26;11.10;99.90
2571;DHT22;1295;51.130;6.732;2022-12-29T04:34:52;11.10;99.90
2571;DHT22;1295;51.130;6.732;2022-12-29T04:37:18;10.80;99.90
2571;DHT22;1295;51.130;6.732;2022-12-29T04:39:43;10.80;99.90
2571;DHT22;1295;51.130;6.732;2022-12-29T04:42:09;10.70;99.90
2571;DHT22;1295;51.130;6.732;2022-12-29T04:44:35;10.90;99.90
2571;DHT22;1295;51.130;6.732;2022-12-29T04:47:00;10.80;99.90
2571;DHT22;1295;51.130;6.732;2022-12-29T04:49:26;10.80;99.90
2571;DHT22;1295;51.130;6.732;2022-12-29T04:51:52;11.10;99.90
2571;DHT22;1295;51.130;6.732;2022-12-29T04:54:17;11.40;99.90
2571;DHT22;1295;51.130;6.732;2022-12-29T04:56:43;11.00;99.90
2571;DHT22;1295;51.130;6.732;2022-12-29T04:59:08;11.00;99.90
2571;DHT22;1295;51.130;6.732;2022-12-29T05:01:34;10.80;99.90
2571;DHT22;1295;51.130;6.732;2022-12-29T05:04:00;10.80;99.90
2571;DHT22;1295;51.130;6.732;2022-12-29T05:06:25;10.80;99.90
2571;DHT22;1295;51.130;6.732;2022-12-29T05:08:51;10.90;99.90
2571;DHT22;1295;51.130;6.732;2022-12-29T05:11:16;11.00;99.90
2571;DHT22;1295;51.130;6.732;2022-12-29T05:13:44;11.00;99.90
2571;DHT22;1295;51.130;6.732;2022-12-29T05:16:08;10.70;99.90
2571;DHT22;1295;51.130;6.732;2022-12-29T05:18:33;10.80;99.90
2571;DHT22;1295;51.130;6.732;2022-12-29T05:20:59;10.90;99.90
2571;DHT22;1295;51.130;6.732;2022-12-29T05:23:25;10.90;99.90
2571;DHT22;1295;51.130;6.732;2022-12-29T05:25:50;11.00;99.90
2571;DHT22;1295;51.130;6.732;2022-12-29T05:28:16;10.80;99.90
2571;DHT22;1295;51.130;6.732;2022-12-29T05:30:41;10.60;99.90
2571;DHT22;1295;51.130;6.732;2022-12-29T05:33:07;10.90;99.90
2571;DHT22;1295;51.130;6.732;2022-12-29T05:35:33;10.60;99.90
2571;DHT22;1295;51.130;6.732;2022-12-29T05:37:58;10.80;99.90
2571;DHT22;1295;51.130;6.732;2022-12-29T05:40:25;11.00;99.90
2571;DHT22;1295;51.130;6.732;2022-12-29T05:42:50;11.00;99.90
2571;DHT22;1295;51.130;6.732;2022-12-29T05:45:16;10.90;99.90
2571;DHT22;1295;51.130;6.732;2022-12-29T05:47:42;10.80;99.90
2571;DHT22;1295;51.130;6.732;2022-12-29T05:50:07;10.60;99.90
2571;DHT22;1295;51.130;6.732;2022-12-29T05:52:33;11.00;99.90
2571;DHT22;1295;51.130;6.732;2022-12-29T05:54:59;10.90;99.90
2571;DHT22;1295;51.130;6.732;2022-12-29T05:57:24;11.00;99.90
2571;DHT22;1295;51.130;6.732;2022-12-29T05:59:51;11.10;99.90
2571;DHT22;1295;51.130;6.732;2022-12-29T06:02:16;11.10;99.90
2571;DHT22;1295;51.130;6.732;2022-12-29T06:04:42;10.80;99.90
2571;DHT22;1295;51.130;6.732;2022-12-29T06:07:07;10.90;99.90
2571;DHT22;1295;51.130;6.732;2022-12-29T06:09:33;11.00;99.90
2571;DHT22;1295;51.130;6.732;2022-12-29T06:11:59;10.80;99.90
2571;DHT22;1295;51.130;6.732;2022-12-29T06:14:24;10.90;99.90
2571;DHT22;1295;51.130;6.732;2022-12-29T06:16:50;11.20;99.90
2571;DHT22;1295;51.130;6.732;2022-12-29T06:19:16;11.00;99.90
2571;DHT22;1295;51.130;6.732;2022-12-29T06:21:41;10.90;99.90
2571;DHT22;1295;51.130;6.732;2022-12-29T06:24:07;10.90;99.90
2571;DHT22;1295;51.130;6.732;2022-12-29T06:26:33;10.60;99.90
2571;DHT22;1295;51.130;6.732;2022-12-29T06:28:59;10.60;99.90
2571;DHT22;1295;51.130;6.732;2022-12-29T06:31:24;10.70;99.90
2571;DHT22;1295;51.130;6.732;2022-12-29T06:33:50;10.90;99.90
2571;DHT22;1295;51.130;6.732;2022-12-29T06:36:16;10.80;99.90
2571;DHT22;1295;51.130;6.732;2022-12-29T06:38:41;10.60;99.90
2571;DHT22;1295;51.130;6.732;2022-12-29T06:41:07;10.80;99.90
2571;DHT22;1295;51.130;6.732;2022-12-29T06:43:32;10.70;99.90
2571;DHT22;1295;51.130;6.732;2022-12-29T06:45:58;10.60;99.90
2571;DHT22;1295;51.130;6.732;2022-12-29T06:48:24;10.50;99.90
2571;DHT22;1295;51.130;6.732;2022-12-29T06:50:49;10.60;99.90
2571;DHT22;1295;51.130;6.732;2022-12-29T06:53:15;10.60;99.90
2571;DHT22;1295;51.130;6.732;2022-12-29T06:55:41;10.80;99.90
2571;DHT22;1295;51.130;6.732;2022-12-29T06:58:06;10.80;99.90
2571;DHT22;1295;51.130;6.732;2022-12-29T07:00:32;10.80;99.90
2571;DHT22;1295;51.130;6.732;2022-12-29T07:02:57;10.70;99.90
2571;DHT22;1295;51.130;6.732;2022-12-29T07:05:24;10.90;99.90
2571;DHT22;1295;51.130;6.732;2022-12-29T07:07:49;10.70;99.90
2571;DHT22;1295;51.130;6.732;2022-12-29T07:10:21;10.70;99.90
2571;DHT22;1295;51.130;6.732;2022-12-29T07:12:46;10.60;99.90
2571;DHT22;1295;51.130;6.732;2022-12-29T07:15:12;10.70;99.90
2571;DHT22;1295;51.130;6.732;2022-12-29T07:17:38;10.60;99.90
2571;DHT22;1295;51.130;6.732;2022-12-29T07:20:04;10.70;99.90
2571;DHT22;1295;51.130;6.732;2022-12-29T07:22:31;10.60;99.90
2571;DHT22;1295;51.130;6.732;2022-12-29T07:24:57;10.60;99.90
2571;DHT22;1295;51.130;6.732;2022-12-29T07:27:22;10.60;99.90
2571;DHT22;1295;51.130;6.732;2022-12-29T07:29:48;10.60;99.90
2571;DHT22;1295;51.130;6.732;2022-12-29T07:32:14;10.60;99.90
2571;DHT22;1295;51.130;6.732;2022-12-29T07:34:39;10.60;99.90
2571;DHT22;1295;51.130;6.732;2022-12-29T07:37:05;10.50;99.90
2571;DHT22;1295;51.130;6.732;2022-12-29T07:39:31;10.50;99.90
2571;DHT22;1295;51.130;6.732;2022-12-29T07:41:57;10.50;99.90
2571;DHT22;1295;51.130;6.732;2022-12-29T07:44:23;10.50;99.90
2571;DHT22;1295;51.130;6.732;2022-12-29T07:46:48;10.60;99.90
2571;DHT22;1295;51.130;6.732;2022-12-29T07:49:14;10.60;99.90
2571;DHT22;1295;51.130;6.732;2022-12-29T07:51:39;10.70;99.90
2571;DHT22;1295;51.130;6.732;2022-12-29T07:54:05;10.50;99.90
2571;DHT22;1295;51.130;6.732;2022-12-29T07:56:31;10.60;99.90
2571;DHT22;1295;51.130;6.732;2022-12-29T07:58:56;10.60;99.90
2571;DHT22;1295;51.130;6.732;2022-12-29T08:01:22;10.80;99.90
2571;DHT22;1295;51.130;6.732;2022-12-29T08:03:47;10.60;99.90
2571;DHT22;1295;51.130;6.732;2022-12-29T08:06:13;10.60;99.90
2571;DHT22;1295;51.130;6.732;2022-12-29T08:08:39;10.60;99.90
2571;DHT22;1295;51.130;6.732;2022-12-29T08:11:04;10.50;99.90
2571;DHT22;1295;51.130;6.732;2022-12-29T08:13:30;10.60;99.90
2571;DHT22;1295;51.130;6.732;2022-12-29T08:15:57;10.70;99.90
2571;DHT22;1295;51.130;6.732;2022-12-29T08:18:21;10.60;99.90
2571;DHT22;1295;51.130;6.732;2022-12-29T08:20:47;10.50;99.90
2571;DHT22;1295;51.130;6.732;2022-12-29T08:23:12;10.50;99.90
2571;DHT22;1295;51.130;6.732;2022-12-29T08:25:38;10.60;99.90
2571;DHT22;1295;51.130;6.732;2022-12-29T08:28:04;10.60;99.90
2571;DHT22;1295;51.130;6.732;2022-12-29T08:30:29;10.60;99.90
2571;DHT22;1295;51.130;6.732;2022-12-29T08:32:55;10.60;99.90
2571;DHT22;1295;51.130;6.732;2022-12-29T08:35:21;10.70;99.90
2571;DHT22;1295;51.130;6.732;2022-12-29T08:37:47;10.60;99.90
2571;DHT22;1295;51.130;6.732;2022-12-29T08:40:14;10.60;99.90
2571;DHT22;1295;51.130;6.732;2022-12-29T08:42:40;10.60;99.90
2571;DHT22;1295;51.130;6.732;2022-12-29T08:45:06;10.50;99.90
2571;DHT22;1295;51.130;6.732;2022-12-29T08:47:32;10.60;99.90
2571;DHT22;1295;51.130;6.732;2022-12-29T08:49:58;10.60;99.90
2571;DHT22;1295;51.130;6.732;2022-12-29T08:52:24;10.50;99.90
2571;DHT22;1295;51.130;6.732;2022-12-29T08:54:51;10.50;99.90
2571;DHT22;1295;51.130;6.732;2022-12-29T08:57:16;10.50;99.90
2571;DHT22;1295;51.130;6.732;2022-12-29T08:59:42;10.60;99.90
2571;DHT22;1295;51.130;6.732;2022-12-29T09:02:10;10.70;99.90
2571;DHT22;1295;51.130;6.732;2022-12-29T09:04:35;10.60;99.90
2571;DHT22;1295;51.130;6.732;2022-12-29T09:07:00;10.60;99.90
2571;DHT22;1295;51.130;6.732;2022-12-29T09:09:26;10.60;99.90
2571;DHT22;1295;51.130;6.732;2022-12-29T09:11:51;10.60;99.90
2571;DHT22;1295;51.130;6.732;2022-12-29T09:14:17;10.60;99.90
2571;DHT22;1295;51.130;6.732;2022-12-29T09:16:43;10.60;99.90
2571;DHT22;1295;51.130;6.732;2022-12-29T09:19:15;10.70;99.90
2571;DHT22;1295;51.130;6.732;2022-12-29T09:21:40;10.80;99.90
2571;DHT22;1295;51.130;6.732;2022-12-29T09:24:06;10.80;99.90
2571;DHT22;1295;51.130;6.732;2022-12-29T09:26:32;10.70;99.90
2571;DHT22;1295;51.130;6.732;2022-12-29T09:28:57;10.80;99.90
2571;DHT22;1295;51.130;6.732;2022-12-29T09:31:23;10.70;99.90
2571;DHT22;1295;51.130;6.732;2022-12-29T09:33:49;10.80;99.90
2571;DHT22;1295;51.130;6.732;2022-12-29T09:36:14;10.70;99.90
2571;DHT22;1295;51.130;6.732;2022-12-29T09:38:40;11.00;99.90
2571;DHT22;1295;51.130;6.732;2022-12-29T09:41:11;10.90;99.90
2571;DHT22;1295;51.130;6.732;2022-12-29T09:43:51;11.10;99.90
2571;DHT22;1295;51.130;6.732;2022-12-29T09:46:22;11.10;99.90
2571;DHT22;1295;51.130;6.732;2022-12-29T09:48:44;11.10;99.90
2571;DHT22;1295;51.130;6.732;2022-12-29T09:51:11;11.00;99.90
2571;DHT22;1295;51.130;6.732;2022-12-29T09:53:39;11.40;99.90
2571;DHT22;1295;51.130;6.732;2022-12-29T09:56:04;11.40;99.90
2571;DHT22;1295;51.130;6.732;2022-12-29T09:58:36;11.30;99.90
2571;DHT22;1295;51.130;6.732;2022-12-29T10:01:20;11.20;99.90
2571;DHT22;1295;51.130;6.732;2022-12-29T10:03:52;11.40;99.90
2571;DHT22;1295;51.130;6.732;2022-12-29T10:06:20;11.80;99.90
2571;DHT22;1295;51.130;6.732;2022-12-29T10:09:01;11.60;99.90
2571;DHT22;1295;51.130;6.732;2022-12-29T10:12:54;12.00;99.90
2571;DHT22;1295;51.130;6.732;2022-12-29T10:14:51;11.70;99.90
2571;DHT22;1295;51.130;6.732;2022-12-29T10:17:38;11.70;99.90
2571;DHT22;1295;51.130;6.732;2022-12-29T10:20:28;11.60;99.90
2571;DHT22;1295;51.130;6.732;2022-12-29T10:23:03;11.70;99.90
2571;DHT22;1295;51.130;6.732;2022-12-29T10:25:25;11.70;99.90
2571;DHT22;1295;51.130;6.732;2022-12-29T10:27:51;11.60;99.90
2571;DHT22;1295;51.130;6.732;2022-12-29T10:30:16;11.80;99.90
2571;DHT22;1295;51.130;6.732;2022-12-29T10:32:44;11.80;99.90
2571;DHT22;1295;51.130;6.732;2022-12-29T10:35:12;11.90;99.90
2571;DHT22;1295;51.130;6.732;2022-12-29T10:37:45;11.90;99.90
2571;DHT22;1295;51.130;6.732;2022-12-29T10:40:15;12.00;99.90
2571;DHT22;1295;51.130;6.732;2022-12-29T10:42:40;12.00;99.90
2571;DHT22;1295;51.130;6.732;2022-12-29T10:45:07;11.90;99.90
2571;DHT22;1295;51.130;6.732;2022-12-29T10:47:34;12.30;99.90
2571;DHT22;1295;51.130;6.732;2022-12-29T10:49:58;12.30;99.90
2571;DHT22;1295;51.130;6.732;2022-12-29T10:52:24;12.60;99.90
2571;DHT22;1295;51.130;6.732;2022-12-29T10:54:52;12.70;99.90
2571;DHT22;1295;51.130;6.732;2022-12-29T10:57:27;12.10;99.90
2571;DHT22;1295;51.130;6.732;2022-12-29T10:59:51;12.30;99.90
2571;DHT22;1295;51.130;6.732;2022-12-29T11:05:16;12.50;99.90
2571;DHT22;1295;51.130;6.732;2022-12-29T11:07:37;12.80;99.90
2571;DHT22;1295;51.130;6.732;2022-12-29T11:10:16;12.80;99.90
2571;DHT22;1295;51.130;6.732;2022-12-29T11:12:39;12.80;99.90
2571;DHT22;1295;51.130;6.732;2022-12-29T11:15:14;12.70;99.90
2571;DHT22;1295;51.130;6.732;2022-12-29T11:17:46;12.90;99.90
2571;DHT22;1295;51.130;6.732;2022-12-29T11:20:26;12.60;99.90
2571;DHT22;1295;51.130;6.732;2022-12-29T11:22:45;12.60;99.90
2571;DHT22;1295;51.130;6.732;2022-12-29T11:25:12;12.90;99.90
2571;DHT22;1295;51.130;6.732;2022-12-29T11:27:36;12.70;99.90
2571;DHT22;1295;51.130;6.732;2022-12-29T11:30:11;12.90;99.90
2571;DHT22;1295;51.130;6.732;2022-12-29T11:32:30;12.60;99.90
2571;DHT22;1295;51.130;6.732;2022-12-29T11:34:56;12.60;99.90
2571;DHT22;1295;51.130;6.732;2022-12-29T11:37:37;12.80;99.90
2571;DHT22;1295;51.130;6.732;2022-12-29T11:40:03;12.60;99.90
2571;DHT22;1295;51.130;6.732;2022-12-29T11:42:35;12.70;99.90
2571;DHT22;1295;51.130;6.732;2022-12-29T11:45:03;12.80;99.90
2571;DHT22;1295;51.130;6.732;2022-12-29T11:47:28;12.60;99.90
2571;DHT22;1295;51.130;6.732;2022-12-29T11:49:53;12.10;99.90
2571;DHT22;1295;51.130;6.732;2022-12-29T11:52:20;12.10;99.90
2571;DHT22;1295;51.130;6.732;2022-12-29T11:54:43;12.60;99.90
2571;DHT22;1295;51.130;6.732;2022-12-29T11:57:10;12.30;99.90
2571;DHT22;1295;51.130;6.732;2022-12-29T11:59:37;12.40;99.90
2571;DHT22;1295;51.130;6.732;2022-12-29T12:04:35;12.20;99.90
2571;DHT22;1295;51.130;6.732;2022-12-29T12:07:02;12.10;99.90
2571;DHT22;1295;51.130;6.732;2022-12-29T12:09:28;12.20;99.90
2571;DHT22;1295;51.130;6.732;2022-12-29T12:11:53;11.90;99.90
2571;DHT22;1295;51.130;6.732;2022-12-29T12:14:27;11.90;99.90
2571;DHT22;1295;51.130;6.732;2022-12-29T12:16:57;12.00;99.90
2571;DHT22;1295;51.130;6.732;2022-12-29T12:19:41;11.90;99.90
2571;DHT22;1295;51.130;6.732;2022-12-29T12:22:13;12.00;99.90
2571;DHT22;1295;51.130;6.732;2022-12-29T12:24:39;11.80;99.90
2571;DHT22;1295;51.130;6.732;2022-12-29T12:30:15;11.50;99.90
2571;DHT22;1295;51.130;6.732;2022-12-29T12:32:47;11.80;99.90
2571;DHT22;1295;51.130;6.732;2022-12-29T12:35:13;11.70;99.90
2571;DHT22;1295;51.130;6.732;2022-12-29T12:37:45;11.60;99.90
2571;DHT22;1295;51.130;6.732;2022-12-29T12:40:30;11.60;99.90
2571;DHT22;1295;51.130;6.732;2022-12-29T12:43:05;11.60;99.90
2571;DHT22;1295;51.130;6.732;2022-12-29T12:45:34;11.60;99.90
2571;DHT22;1295;51.130;6.732;2022-12-29T12:48:09;11.60;99.90
2571;DHT22;1295;51.130;6.732;2022-12-29T12:53:26;11.50;99.90
2571;DHT22;1295;51.130;6.732;2022-12-29T12:56:14;11.50;99.90
2571;DHT22;1295;51.130;6.732;2022-12-29T12:58:50;11.50;99.90
2571;DHT22;1295;51.130;6.732;2022-12-29T13:07:12;11.40;99.90
2571;DHT22;1295;51.130;6.732;2022-12-29T13:09:45;11.50;99.90
2571;DHT22;1295;51.130;6.732;2022-12-29T13:12:28;11.40;99.90
2571;DHT22;1295;51.130;6.732;2022-12-29T13:15:04;11.40;99.90
2571;DHT22;1295;51.130;6.732;2022-12-29T13:17:32;11.60;99.90
2571;DHT22;1295;51.130;6.732;2022-12-29T13:20:02;12.00;99.90
2571;DHT22;1295;51.130;6.732;2022-12-29T13:22:33;12.00;99.90
2571;DHT22;1295;51.130;6.732;2022-12-29T13:30:22;11.90;99.90
2571;DHT22;1295;51.130;6.732;2022-12-29T13:32:57;11.90;99.90
2571;DHT22;1295;51.130;6.732;2022-12-29T13:35:37;11.80;99.90
2571;DHT22;1295;51.130;6.732;2022-12-29T13:38:01;11.80;99.90
2571;DHT22;1295;51.130;6.732;2022-12-29T13:40:26;11.70;99.90
2571;DHT22;1295;51.130;6.732;2022-12-29T13:42:51;11.70;99.90
2571;DHT22;1295;51.130;6.732;2022-12-29T13:45:23;11.60;99.90
2571;DHT22;1295;51.130;6.732;2022-12-29T13:50:38;11.60;99.90
2571;DHT22;1295;51.130;6.732;2022-12-29T13:58:31;11.60;99.90
2571;DHT22;1295;51.130;6.732;2022-12-29T14:01:08;11.60;99.90
2571;DHT22;1295;51.130;6.732;2022-12-29T14:03:49;11.60;99.90
2571;DHT22;1295;51.130;6.732;2022-12-29T14:06:25;11.50;99.90
2571;DHT22;1295;51.130;6.732;2022-12-29T14:08:54;11.40;99.90
2571;DHT22;1295;51.130;6.732;2022-12-29T14:11:30;11.40;99.90
2571;DHT22;1295;51.130;6.732;2022-12-29T14:13:54;11.30;99.90
2571;DHT22;1295;51.130;6.732;2022-12-29T14:16:24;11.30;99.90
2571;DHT22;1295;51.130;6.732;2022-12-29T14:18:46;11.20;99.90
2571;DHT22;1295;51.130;6.732;2022-12-29T14:21:21;11.30;99.90
2571;DHT22;1295;51.130;6.732;2022-12-29T14:23:48;11.20;99.90
2571;DHT22;1295;51.130;6.732;2022-12-29T14:28:49;11.20;99.90
2571;DHT22;1295;51.130;6.732;2022-12-29T14:31:33;11.20;99.90
2571;DHT22;1295;51.130;6.732;2022-12-29T14:34:26;11.20;99.90
2571;DHT22;1295;51.130;6.732;2022-12-29T14:36:54;11.20;99.90
2571;DHT22;1295;51.130;6.732;2022-12-29T14:39:28;11.30;99.90
2571;DHT22;1295;51.130;6.732;2022-12-29T14:42:03;11.20;99.90
2571;DHT22;1295;51.130;6.732;2022-12-29T14:44:26;11.20;99.90
2571;DHT22;1295;51.130;6.732;2022-12-29T14:46:58;11.20;99.90
2571;DHT22;1295;51.130;6.732;2022-12-29T14:49:24;11.10;99.90
2571;DHT22;1295;51.130;6.732;2022-12-29T14:51:49;11.20;99.90
2571;DHT22;1295;51.130;6.732;2022-12-29T14:56:53;11.00;99.90
2571;DHT22;1295;51.130;6.732;2022-12-29T14:59:18;11.00;99.90
2571;DHT22;1295;51.130;6.732;2022-12-29T15:01:47;11.00;99.90
2571;DHT22;1295;51.130;6.732;2022-12-29T15:04:14;11.00;99.90
2571;DHT22;1295;51.130;6.732;2022-12-29T15:06:38;11.00;99.90
2571;DHT22;1295;51.130;6.732;2022-12-29T15:09:06;11.00;99.90
2571;DHT22;1295;51.130;6.732;2022-12-29T15:11:45;11.00;99.90
2571;DHT22;1295;51.130;6.732;2022-12-29T15:16:49;11.00;99.90
2571;DHT22;1295;51.130;6.732;2022-12-29T15:19:22;10.90;99.90
2571;DHT22;1295;51.130;6.732;2022-12-29T15:21:47;10.90;99.90
2571;DHT22;1295;51.130;6.732;2022-12-29T15:24:13;10.90;99.90
2571;DHT22;1295;51.130;6.732;2022-12-29T15:26:39;10.90;99.90
2571;DHT22;1295;51.130;6.732;2022-12-29T15:29:04;10.80;99.90
2571;DHT22;1295;51.130;6.732;2022-12-29T15:31:29;10.90;99.90
2571;DHT22;1295;51.130;6.732;2022-12-29T15:34:01;10.80;99.90
2571;DHT22;1295;51.130;6.732;2022-12-29T15:36:24;10.80;99.90
2571;DHT22;1295;51.130;6.732;2022-12-29T15:38:53;10.80;99.90
2571;DHT22;1295;51.130;6.732;2022-12-29T15:41:33;10.90;99.90
2571;DHT22;1295;51.130;6.732;2022-12-29T15:44:17;10.80;99.90
2571;DHT22;1295;51.130;6.732;2022-12-29T15:46:42;10.90;99.90
2571;DHT22;1295;51.130;6.732;2022-12-29T15:49:08;10.80;99.90
2571;DHT22;1295;51.130;6.732;2022-12-29T15:51:35;10.80;99.90
2571;DHT22;1295;51.130;6.732;2022-12-29T15:54:00;10.80;99.90
2571;DHT22;1295;51.130;6.732;2022-12-29T15:56:28;10.70;99.90
2571;DHT22;1295;51.130;6.732;2022-12-29T15:58:54;10.80;99.90
2571;DHT22;1295;51.130;6.732;2022-12-29T16:01:23;10.70;99.90
2571;DHT22;1295;51.130;6.732;2022-12-29T16:03:46;10.70;99.90
2571;DHT22;1295;51.130;6.732;2022-12-29T16:06:27;10.70;99.90
2571;DHT22;1295;51.130;6.732;2022-12-29T16:08:59;10.80;99.90
2571;DHT22;1295;51.130;6.732;2022-12-29T16:11:39;10.70;99.90
2571;DHT22;1295;51.130;6.732;2022-12-29T16:14:08;10.60;99.90
2571;DHT22;1295;51.130;6.732;2022-12-29T16:16:36;10.60;99.90
2571;DHT22;1295;51.130;6.732;2022-12-29T16:19:04;10.70;99.90
2571;DHT22;1295;51.130;6.732;2022-12-29T16:21:29;10.80;99.90
2571;DHT22;1295;51.130;6.732;2022-12-29T16:23:58;10.60;99.90
2571;DHT22;1295;51.130;6.732;2022-12-29T16:26:22;10.60;99.90
2571;DHT22;1295;51.130;6.732;2022-12-29T16:28:49;10.50;99.90
2571;DHT22;1295;51.130;6.732;2022-12-29T16:31:23;10.50;99.90
2571;DHT22;1295;51.130;6.732;2022-12-29T16:33:49;10.50;99.90
2571;DHT22;1295;51.130;6.732;2022-12-29T16:36:24;10.60;99.90
2571;DHT22;1295;51.130;6.732;2022-12-29T16:38:48;10.60;99.90
2571;DHT22;1295;51.130;6.732;2022-12-29T16:44:10;10.60;99.90
2571;DHT22;1295;51.130;6.732;2022-12-29T16:46:21;10.50;99.90
2571;DHT22;1295;51.130;6.732;2022-12-29T16:48:48;10.60;99.90
2571;DHT22;1295;51.130;6.732;2022-12-29T16:51:14;10.60;99.90
2571;DHT22;1295;51.130;6.732;2022-12-29T16:53:39;10.60;99.90
2571;DHT22;1295;51.130;6.732;2022-12-29T16:56:12;10.50;99.90
2571;DHT22;1295;51.130;6.732;2022-12-29T16:58:34;10.60;99.90
2571;DHT22;1295;51.130;6.732;2022-12-29T17:00:59;10.50;99.90
2571;DHT22;1295;51.130;6.732;2022-12-29T17:03:28;10.40;99.90